Time;durP1;ratioP1;P1;durP2;ratioP2;P2;SDS_P1;SDS_P2;PMS_P1;PMS_P2;Temp;Humidity;BMP_temperature;BMP_pressure;BME280_temperature;BME280_humidity;BME280_pressure;Samples;Min_cycle;Max_cycle;Signal;HPM_P1;HPM_P2
2020/12/12 00:01:04;;;;;;;13.07;5.43;;;;;;;;;;5057462;28;20025;-60
2020/12/12 00:03:30;;;;;;;10.43;4.85;;;;;;;;;;5078356;28;20037;-57
2020/12/12 00:05:56;;;;;;;11.70;5.03;;;;;;;;;;5061843;28;20056;-60
2020/12/12 00:08:22;;;;;;;13.73;5.05;;;;;;;;;;5058951;28;20063;-56
2020/12/12 00:10:49;;;;;;;13.05;5.07;;;;;;;;;;5077323;28;20045;-58
2020/12/12 00:13:15;;;;;;;13.52;5.47;;;;;;;;;;5055134;28;20052;-59
2020/12/12 00:15:42;;;;;;;11.25;5.25;;;;;;;;;;5041021;28;20049;-51
2020/12/12 00:18:09;;;;;;;11.75;5.40;;;;;;;;;;5039609;28;20039;-53
2020/12/12 00:20:35;;;;;;;10.52;4.57;;;;;;;;;;5024317;28;20051;-58
2020/12/12 00:23:01;;;;;;;13.98;6.30;;;;;;;;;;5027973;28;20044;-54
2020/12/12 00:25:27;;;;;;;12.65;5.20;;;;;;;;;;5024340;28;20049;-55
2020/12/12 00:27:53;;;;;;;11.93;4.65;;;;;;;;;;5040670;28;20025;-56
2020/12/12 00:30:19;;;;;;;10.52;4.47;;;;;;;;;;5024085;28;20173;-56
2020/12/12 00:32:45;;;;;;;8.88;4.35;;;;;;;;;;5041603;28;20048;-55
2020/12/12 00:35:12;;;;;;;12.77;5.65;;;;;;;;;;5043245;28;20060;-56
2020/12/12 00:37:39;;;;;;;12.57;5.00;;;;;;;;;;5039169;28;20052;-58
2020/12/12 00:40:07;;;;;;;8.68;3.15;;;;;;;;;;5042261;28;20056;-57
2020/12/12 00:42:33;;;;;;;11.38;4.60;;;;;;;;;;5024750;28;20060;-55
2020/12/12 00:44:59;;;;;;;10.88;4.45;;;;;;;;;;5033601;28;20096;-54
2020/12/12 00:47:25;;;;;;;12.20;5.60;;;;;;;;;;5045666;28;20047;-56
2020/12/12 00:49:52;;;;;;;11.48;5.07;;;;;;;;;;5072716;28;20055;-59
2020/12/12 00:52:19;;;;;;;12.82;5.65;;;;;;;;;;5082546;28;20117;-55
2020/12/12 00:54:45;;;;;;;10.02;4.95;;;;;;;;;;5082980;28;20040;-58
2020/12/12 00:57:11;;;;;;;14.20;4.90;;;;;;;;;;5058755;28;20041;-53
2020/12/12 00:59:37;;;;;;;12.80;5.18;;;;;;;;;;5057750;28;20051;-56
2020/12/12 01:02:03;;;;;;;11.88;4.70;;;;;;;;;;5069261;28;20059;-51
2020/12/12 01:04:29;;;;;;;11.93;5.07;;;;;;;;;;5051955;28;20052;-56
2020/12/12 01:06:55;;;;;;;11.30;4.82;;;;;;;;;;5048994;28;20066;-57
2020/12/12 01:09:22;;;;;;;14.10;5.57;;;;;;;;;;5052931;28;20131;-58
2020/12/12 01:11:48;;;;;;;10.32;4.43;;;;;;;;;;5041284;28;20052;-52
2020/12/12 01:14:15;;;;;;;10.65;4.90;;;;;;;;;;5053928;28;20047;-56
2020/12/12 01:16:41;;;;;;;13.50;5.72;;;;;;;;;;5041372;28;20045;-54
2020/12/12 01:19:07;;;;;;;12.57;5.45;;;;;;;;;;5037578;28;20051;-54
2020/12/12 01:21:33;;;;;;;11.25;4.25;;;;;;;;;;5025117;28;20122;-58
2020/12/12 01:23:59;;;;;;;7.97;3.70;;;;;;;;;;5042040;28;20045;-55
2020/12/12 01:26:26;;;;;;;12.25;4.88;;;;;;;;;;5055399;28;20059;-53
2020/12/12 01:28:52;;;;;;;10.75;5.10;;;;;;;;;;5059376;28;20073;-55
2020/12/12 01:31:21;;;;;;;11.57;4.68;;;;;;;;;;5063225;28;20036;-54
2020/12/12 01:33:47;;;;;;;11.45;5.35;;;;;;;;;;5056572;28;20033;-57
2020/12/12 01:36:13;;;;;;;12.43;5.47;;;;;;;;;;5047619;28;20048;-56
2020/12/12 01:38:40;;;;;;;13.25;5.78;;;;;;;;;;5052824;28;20047;-57
2020/12/12 01:41:06;;;;;;;13.15;5.60;;;;;;;;;;5047717;28;20041;-60
2020/12/12 01:43:33;;;;;;;13.23;5.78;;;;;;;;;;5061328;28;20045;-58
2020/12/12 01:45:59;;;;;;;12.35;5.70;;;;;;;;;;5047820;28;20044;-57
2020/12/12 01:48:26;;;;;;;11.00;5.07;;;;;;;;;;5041533;28;20044;-56
2020/12/12 01:50:52;;;;;;;11.32;4.97;;;;;;;;;;5039762;28;20029;-59
2020/12/12 01:53:18;;;;;;;14.13;5.45;;;;;;;;;;5039799;28;20053;-58
2020/12/12 01:55:46;;;;;;;13.25;5.07;;;;;;;;;;5043479;28;20054;-57
2020/12/12 01:58:13;;;;;;;14.20;5.10;;;;;;;;;;5073122;28;20033;-59
2020/12/12 02:00:40;;;;;;;13.52;6.07;;;;;;;;;;5041119;28;20051;-60
2020/12/12 02:03:08;;;;;;;18.00;5.38;;;;;;;;;;5041941;28;20056;-60
2020/12/12 02:05:41;;;;;;;12.85;5.30;;;;;;;;;;5051692;28;20048;-58
2020/12/12 02:08:09;;;;;;;12.75;4.72;;;;;;;;;;5040749;28;20064;-56
2020/12/12 02:10:36;;;;;;;12.50;5.45;;;;;;;;;;5076034;28;20179;-58
2020/12/12 02:13:03;;;;;;;17.10;6.97;;;;;;;;;;5063541;28;20032;-59
2020/12/12 02:15:29;;;;;;;14.88;5.63;;;;;;;;;;5059356;28;20036;-54
2020/12/12 02:18:01;;;;;;;15.07;5.85;;;;;;;;;;5042271;28;20055;-52
2020/12/12 02:20:27;;;;;;;14.93;5.55;;;;;;;;;;5065553;28;20052;-59
2020/12/12 02:22:56;;;;;;;12.95;5.70;;;;;;;;;;5061789;28;20052;-56
2020/12/12 02:25:22;;;;;;;14.45;5.72;;;;;;;;;;5088356;28;20060;-54
2020/12/12 02:27:51;;;;;;;12.63;5.07;;;;;;;;;;5085596;28;20163;-57
2020/12/12 02:30:17;;;;;;;13.10;5.70;;;;;;;;;;5062751;28;20044;-55
2020/12/12 02:32:43;;;;;;;13.90;6.03;;;;;;;;;;5055033;28;20098;-55
2020/12/12 02:35:09;;;;;;;15.45;6.45;;;;;;;;;;5045602;28;20077;-61
2020/12/12 02:37:35;;;;;;;11.93;5.18;;;;;;;;;;5034614;28;20071;-60
2020/12/12 02:40:03;;;;;;;12.63;5.72;;;;;;;;;;5046457;28;20060;-53
2020/12/12 02:42:29;;;;;;;12.43;5.47;;;;;;;;;;5041571;28;20041;-53
2020/12/12 02:44:55;;;;;;;13.70;5.75;;;;;;;;;;5046097;28;20051;-51
2020/12/12 02:47:22;;;;;;;12.48;5.63;;;;;;;;;;5045333;28;20025;-55
2020/12/12 02:49:56;;;;;;;14.77;6.28;;;;;;;;;;5074078;28;20182;-55
2020/12/12 02:52:22;;;;;;;13.30;5.03;;;;;;;;;;5082885;28;20052;-55
2020/12/12 02:54:48;;;;;;;11.73;4.90;;;;;;;;;;5065205;28;20036;-59
2020/12/12 02:57:16;;;;;;;14.23;5.65;;;;;;;;;;5064444;28;20036;-56
2020/12/12 02:59:43;;;;;;;11.25;5.13;;;;;;;;;;5057603;28;20052;-50
2020/12/12 03:02:09;;;;;;;11.88;5.45;;;;;;;;;;5070985;28;20048;-55
2020/12/12 03:04:35;;;;;;;16.38;6.05;;;;;;;;;;5065535;28;20033;-55
2020/12/12 03:07:01;;;;;;;11.32;5.50;;;;;;;;;;5063472;28;20047;-54
2020/12/12 03:09:27;;;;;;;9.93;4.35;;;;;;;;;;5068760;28;20040;-60
2020/12/12 03:11:53;;;;;;;10.98;4.55;;;;;;;;;;5077738;28;20139;-57
2020/12/12 03:14:20;;;;;;;12.15;5.68;;;;;;;;;;5055083;28;20042;-57
2020/12/12 03:16:46;;;;;;;11.40;5.00;;;;;;;;;;5085881;28;20042;-57
2020/12/12 03:19:12;;;;;;;13.32;5.20;;;;;;;;;;5073357;28;20045;-56
2020/12/12 03:21:38;;;;;;;13.82;5.97;;;;;;;;;;5062688;28;20133;-54
2020/12/12 03:24:04;;;;;;;14.38;5.47;;;;;;;;;;5060978;28;20123;-53
2020/12/12 03:26:30;;;;;;;10.82;4.88;;;;;;;;;;5084393;28;20060;-56
2020/12/12 03:28:56;;;;;;;15.18;5.65;;;;;;;;;;5081934;28;20036;-52
2020/12/12 03:31:23;;;;;;;14.93;5.30;;;;;;;;;;5078841;28;20036;-55
2020/12/12 03:33:49;;;;;;;11.10;5.00;;;;;;;;;;5081773;28;20073;-50
2020/12/12 03:36:15;;;;;;;12.38;5.60;;;;;;;;;;5056207;28;20041;-54
2020/12/12 03:38:41;;;;;;;17.08;5.70;;;;;;;;;;5060945;28;20039;-60
2020/12/12 03:41:08;;;;;;;11.55;5.03;;;;;;;;;;5071075;28;20036;-53
2020/12/12 03:43:33;;;;;;;10.68;4.50;;;;;;;;;;5064766;28;20051;-55
2020/12/12 03:46:02;;;;;;;11.30;4.72;;;;;;;;;;5051038;28;20033;-56
2020/12/12 03:48:29;;;;;;;9.40;4.10;;;;;;;;;;5046457;28;20049;-54
2020/12/12 03:50:55;;;;;;;9.30;4.05;;;;;;;;;;5048441;28;20040;-56
2020/12/12 03:53:21;;;;;;;11.63;4.82;;;;;;;;;;5060911;28;20055;-52
2020/12/12 03:55:47;;;;;;;12.35;5.80;;;;;;;;;;5061376;28;20040;-56
2020/12/12 03:58:13;;;;;;;12.05;5.13;;;;;;;;;;5065653;28;20033;-53
2020/12/12 04:00:39;;;;;;;12.40;5.25;;;;;;;;;;5060162;28;20121;-55
2020/12/12 04:03:05;;;;;;;12.05;5.68;;;;;;;;;;5053375;28;20048;-58
2020/12/12 04:05:32;;;;;;;11.90;5.18;;;;;;;;;;5034897;28;20054;-58
2020/12/12 04:07:59;;;;;;;9.93;4.53;;;;;;;;;;5040567;28;20077;-51
2020/12/12 04:10:25;;;;;;;12.75;5.18;;;;;;;;;;5034314;28;20041;-48
2020/12/12 04:12:51;;;;;;;12.20;5.30;;;;;;;;;;5037056;28;20122;-56
2020/12/12 04:15:17;;;;;;;12.93;6.43;;;;;;;;;;5041521;28;20033;-58
2020/12/12 04:17:45;;;;;;;11.60;5.45;;;;;;;;;;5039714;28;20089;-55
2020/12/12 04:20:11;;;;;;;10.82;5.13;;;;;;;;;;5041327;28;20115;-56
2020/12/12 04:22:38;;;;;;;11.68;5.00;;;;;;;;;;5032890;28;20061;-53
2020/12/12 04:25:04;;;;;;;13.70;5.97;;;;;;;;;;5022516;28;20050;-54
2020/12/12 04:27:30;;;;;;;13.23;5.18;;;;;;;;;;5008740;28;20053;-56
2020/12/12 04:29:56;;;;;;;13.15;6.05;;;;;;;;;;5007455;28;20049;-55
2020/12/12 04:32:24;;;;;;;14.65;6.38;;;;;;;;;;5038102;28;20089;-57
2020/12/12 04:34:50;;;;;;;14.38;5.95;;;;;;;;;;5020628;28;20049;-52
2020/12/12 04:37:16;;;;;;;15.73;6.70;;;;;;;;;;5018095;28;20041;-56
2020/12/12 04:39:43;;;;;;;14.55;6.47;;;;;;;;;;5022454;28;20026;-59
2020/12/12 04:42:10;;;;;;;15.18;5.95;;;;;;;;;;5022429;28;20034;-58
2020/12/12 04:44:36;;;;;;;13.73;5.70;;;;;;;;;;5062050;28;20036;-58
2020/12/12 04:47:04;;;;;;;17.60;5.60;;;;;;;;;;5061123;28;20036;-53
2020/12/12 04:49:32;;;;;;;13.63;6.20;;;;;;;;;;5038272;28;20130;-58
2020/12/12 04:52:02;;;;;;;13.73;5.43;;;;;;;;;;5041535;28;20041;-58
2020/12/12 04:54:31;;;;;;;15.02;5.65;;;;;;;;;;5038411;28;20053;-56
2020/12/12 04:56:58;;;;;;;15.00;6.45;;;;;;;;;;5041910;28;20044;-59
2020/12/12 04:59:26;;;;;;;14.93;6.32;;;;;;;;;;5021367;28;20061;-56
2020/12/12 05:01:53;;;;;;;13.23;5.65;;;;;;;;;;5044385;28;20041;-59
2020/12/12 05:04:19;;;;;;;13.98;5.93;;;;;;;;;;5054102;28;20084;-54
2020/12/12 05:06:47;;;;;;;18.13;6.55;;;;;;;;;;5033539;28;20041;-58
2020/12/12 05:09:14;;;;;;;17.08;7.78;;;;;;;;;;5046464;28;20077;-59
2020/12/12 05:11:43;;;;;;;11.68;5.18;;;;;;;;;;5041519;28;20055;-60
2020/12/12 05:14:10;;;;;;;15.85;5.72;;;;;;;;;;5031271;28;20058;-55
2020/12/12 05:16:36;;;;;;;13.77;6.13;;;;;;;;;;5021750;28;20033;-57
2020/12/12 05:19:03;;;;;;;16.70;7.68;;;;;;;;;;5025906;28;20037;-57
2020/12/12 05:21:29;;;;;;;17.35;6.45;;;;;;;;;;5030676;28;20089;-56
2020/12/12 05:23:55;;;;;;;17.25;6.93;;;;;;;;;;5013775;28;20058;-55
2020/12/12 05:26:21;;;;;;;13.65;6.38;;;;;;;;;;5001661;28;20058;-54
2020/12/12 05:28:48;;;;;;;14.27;6.38;;;;;;;;;;4999422;28;20046;-56
2020/12/12 05:31:16;;;;;;;16.30;6.93;;;;;;;;;;5033216;28;20080;-56
2020/12/12 05:33:42;;;;;;;12.43;5.15;;;;;;;;;;5042509;28;20048;-55
2020/12/12 05:36:15;;;;;;;16.85;6.30;;;;;;;;;;5035215;28;20037;-54
2020/12/12 05:38:41;;;;;;;13.85;6.55;;;;;;;;;;5040239;28;20045;-56
2020/12/12 05:41:07;;;;;;;16.63;6.70;;;;;;;;;;5021794;28;20077;-54
2020/12/12 05:43:35;;;;;;;13.80;6.13;;;;;;;;;;5021065;28;20095;-56
2020/12/12 05:46:02;;;;;;;15.23;6.38;;;;;;;;;;5030380;28;20040;-58
2020/12/12 05:48:29;;;;;;;18.42;5.93;;;;;;;;;;5040234;28;20069;-58
2020/12/12 05:50:56;;;;;;;17.40;6.28;;;;;;;;;;5036393;28;20051;-59
2020/12/12 05:53:23;;;;;;;11.30;5.35;;;;;;;;;;5041357;28;20041;-57
2020/12/12 05:55:52;;;;;;;15.52;5.80;;;;;;;;;;5027579;28;20321;-56
2020/12/12 05:58:18;;;;;;;;;;;;;;;;;;5020896;28;20065;-54
2020/12/12 06:00:47;;;;;;;12.68;4.97;;;;;;;;;;5022994;28;19987;-53
2020/12/12 06:03:20;;;;;;;17.35;6.63;;;;;;;;;;5039286;28;20037;-57
2020/12/12 06:05:52;;;;;;;12.27;5.55;;;;;;;;;;5017260;28;20135;-55
2020/12/12 06:08:23;;;;;;;15.65;6.53;;;;;;;;;;5020953;28;20128;-58
2020/12/12 06:10:51;;;;;;;13.80;5.38;;;;;;;;;;5018629;28;20116;-56
2020/12/12 06:13:18;;;;;;;15.10;5.70;;;;;;;;;;5020347;28;20034;-55
2020/12/12 06:15:47;;;;;;;13.10;5.65;;;;;;;;;;5014951;28;20052;-58
2020/12/12 06:18:25;;;;;;;13.50;5.63;;;;;;;;;;5016655;28;20044;-54
2020/12/12 06:20:52;;;;;;;12.50;5.43;;;;;;;;;;5016364;28;20077;-61
2020/12/12 06:23:19;;;;;;;10.82;4.75;;;;;;;;;;5020633;28;20295;-61
2020/12/12 06:25:45;;;;;;;11.35;4.97;;;;;;;;;;5019127;28;20046;-59
2020/12/12 06:28:15;;;;;;;13.82;4.93;;;;;;;;;;5033597;28;20061;-56
2020/12/12 06:30:42;;;;;;;11.52;5.07;;;;;;;;;;5040295;28;20043;-58
2020/12/12 06:33:09;;;;;;;12.82;4.38;;;;;;;;;;5019969;28;20073;-56
2020/12/12 06:35:35;;;;;;;11.23;5.05;;;;;;;;;;5010953;28;20033;-57
2020/12/12 06:38:20;;;;;;;11.38;5.20;;;;;;;;;;5031238;28;20093;-59
2020/12/12 06:40:47;;;;;;;10.80;4.70;;;;;;;;;;5041985;28;20049;-60
2020/12/12 06:43:26;;;;;;;10.82;4.55;;;;;;;;;;5038796;28;20037;-60
2020/12/12 06:45:52;;;;;;;;;;;;;;;;;;5041480;28;20061;-55
2020/12/12 06:48:21;;;;;;;11.45;4.50;;;;;;;;;;5034441;28;19940;-53
2020/12/12 06:50:47;;;;;;;12.88;5.18;;;;;;;;;;5039224;28;20041;-59
2020/12/12 06:53:18;;;;;;;12.07;4.47;;;;;;;;;;5035978;28;20041;-57
2020/12/12 06:55:45;;;;;;;14.60;5.57;;;;;;;;;;5038987;28;20037;-56
2020/12/12 06:58:26;;;;;;;18.17;5.43;;;;;;;;;;5029843;28;20064;-55
2020/12/12 07:00:52;;;;;;;15.73;5.65;;;;;;;;;;5019274;28;20029;-54
2020/12/12 07:03:21;;;;;;;18.45;5.22;;;;;;;;;;5026360;28;20072;-57
2020/12/12 07:05:47;;;;;;;14.23;5.80;;;;;;;;;;5064184;28;20040;-55
2020/12/12 07:08:14;;;;;;;14.80;5.72;;;;;;;;;;5058950;28;20040;-56
2020/12/12 07:10:41;;;;;;;19.70;5.72;;;;;;;;;;5082213;28;20071;-55
2020/12/12 07:13:08;;;;;;;16.08;5.50;;;;;;;;;;5061044;28;20055;-53
2020/12/12 07:15:36;;;;;;;15.88;6.13;;;;;;;;;;5065081;28;20033;-53
2020/12/12 07:18:03;;;;;;;16.10;5.15;;;;;;;;;;5061718;28;20044;-54
2020/12/12 07:20:31;;;;;;;14.13;5.65;;;;;;;;;;5044118;28;20037;-53
2020/12/12 07:22:59;;;;;;;16.60;5.70;;;;;;;;;;5062466;28;20090;-55
2020/12/12 07:25:25;;;;;;;16.63;6.10;;;;;;;;;;5060271;28;20048;-56
2020/12/12 07:27:52;;;;;;;21.63;5.38;;;;;;;;;;5065626;28;20284;-55
2020/12/12 07:30:19;;;;;;;15.55;5.43;;;;;;;;;;5046247;28;20044;-59
2020/12/12 07:32:45;;;;;;;16.33;6.25;;;;;;;;;;5044817;28;20048;-56
2020/12/12 07:35:12;;;;;;;17.77;5.95;;;;;;;;;;5062116;28;20063;-53
2020/12/12 07:37:38;;;;;;;23.13;6.03;;;;;;;;;;5063858;28;20043;-58
2020/12/12 07:40:04;;;;;;;16.17;5.80;;;;;;;;;;5033744;28;20029;-58
2020/12/12 07:42:33;;;;;;;15.77;5.82;;;;;;;;;;5056742;28;20304;-58
2020/12/12 07:45:08;;;;;;;14.18;5.82;;;;;;;;;;5064369;28;20050;-62
2020/12/12 07:47:34;;;;;;;15.93;5.80;;;;;;;;;;5071768;28;20047;-60
2020/12/12 07:50:02;;;;;;;18.08;6.22;;;;;;;;;;5069682;28;20036;-54
2020/12/12 07:52:28;;;;;;;14.77;5.40;;;;;;;;;;5061755;28;20076;-56
2020/12/12 07:54:58;;;;;;;21.20;6.65;;;;;;;;;;5058329;28;20055;-54
2020/12/12 07:57:24;;;;;;;15.98;5.82;;;;;;;;;;5060418;28;20048;-58
2020/12/12 07:59:50;;;;;;;13.65;5.88;;;;;;;;;;5059693;28;20094;-56
2020/12/12 08:02:16;;;;;;;16.27;6.25;;;;;;;;;;5051824;28;20044;-59
2020/12/12 08:04:43;;;;;;;18.30;6.72;;;;;;;;;;5040971;28;20052;-60
2020/12/12 08:07:09;;;;;;;16.30;5.55;;;;;;;;;;5058899;28;20089;-58
2020/12/12 08:09:38;;;;;;;18.80;6.10;;;;;;;;;;5052769;28;20110;-58
2020/12/12 08:12:04;;;;;;;17.92;6.18;;;;;;;;;;5045302;28;20118;-57
2020/12/12 08:14:40;;;;;;;16.20;5.95;;;;;;;;;;5061313;28;20053;-54
2020/12/12 08:17:09;;;;;;;16.92;5.53;;;;;;;;;;5054778;28;20049;-59
2020/12/12 08:19:35;;;;;;;;;;;;;;;;;;5041551;28;20055;-60
2020/12/12 08:22:07;;;;;;;18.00;5.30;;;;;;;;;;5050591;28;19942;-59
2020/12/12 08:24:33;;;;;;;19.17;5.65;;;;;;;;;;5062935;28;20056;-59
2020/12/12 08:26:59;;;;;;;19.10;6.50;;;;;;;;;;5057686;28;20041;-58
2020/12/12 08:29:26;;;;;;;26.63;7.88;;;;;;;;;;5063283;28;20055;-57
2020/12/12 08:31:52;;;;;;;21.52;6.50;;;;;;;;;;5057556;28;20073;-56
2020/12/12 08:34:18;;;;;;;21.98;6.47;;;;;;;;;;5062093;28;20044;-64
2020/12/12 08:36:44;;;;;;;20.10;6.55;;;;;;;;;;5055778;28;20051;-60
2020/12/12 08:39:11;;;;;;;20.25;6.38;;;;;;;;;;5059838;28;20047;-56
2020/12/12 08:41:38;;;;;;;16.08;5.50;;;;;;;;;;5055436;28;20036;-60
2020/12/12 08:44:04;;;;;;;20.60;5.47;;;;;;;;;;5062691;28;20090;-61
2020/12/12 08:46:31;;;;;;;21.27;6.72;;;;;;;;;;5057345;28;20044;-61
2020/12/12 08:48:58;;;;;;;14.73;5.53;;;;;;;;;;5062525;28;20049;-59
2020/12/12 08:51:24;;;;;;;22.92;6.70;;;;;;;;;;5060327;28;20051;-58
2020/12/12 08:53:51;;;;;;;15.70;5.15;;;;;;;;;;5057513;28;20051;-59
2020/12/12 08:56:25;;;;;;;21.40;7.30;;;;;;;;;;5061241;28;20060;-56
2020/12/12 08:58:54;;;;;;;22.05;6.75;;;;;;;;;;5040846;28;20066;-59
2020/12/12 09:01:22;;;;;;;18.88;6.07;;;;;;;;;;5043184;28;20052;-56
2020/12/12 09:04:09;;;;;;;22.92;5.60;;;;;;;;;;5059358;28;20043;-57
2020/12/12 09:06:46;;;;;;;18.50;5.93;;;;;;;;;;5077857;28;20044;-57
2020/12/12 09:09:18;;;;;;;22.83;6.28;;;;;;;;;;5077289;28;20097;-60
2020/12/12 09:11:46;;;;;;;23.15;6.88;;;;;;;;;;5081645;28;20036;-55
2020/12/12 09:14:12;;;;;;;20.38;6.68;;;;;;;;;;5077420;28;20045;-55
2020/12/12 09:16:39;;;;;;;26.98;6.53;;;;;;;;;;5063013;28;20040;-55
2020/12/12 09:19:07;;;;;;;20.60;6.38;;;;;;;;;;5061654;28;20028;-56
2020/12/12 09:21:34;;;;;;;21.83;6.38;;;;;;;;;;5056311;28;20036;-52
2020/12/12 09:24:00;;;;;;;18.30;6.93;;;;;;;;;;5080178;28;20048;-52
2020/12/12 09:26:26;;;;;;;17.15;6.35;;;;;;;;;;5046486;28;20041;-57
2020/12/12 09:28:56;;;;;;;21.63;6.38;;;;;;;;;;5041732;28;20048;-56
2020/12/12 09:31:25;;;;;;;18.45;6.38;;;;;;;;;;5061775;28;20040;-50
2020/12/12 09:34:01;;;;;;;17.35;6.03;;;;;;;;;;5071680;28;20045;-53
2020/12/12 09:36:35;;;;;;;22.52;6.72;;;;;;;;;;5040453;28;20043;-55
2020/12/12 09:39:15;;;;;;;17.10;6.13;;;;;;;;;;5045588;28;20025;-58
2020/12/12 09:41:44;;;;;;;21.73;6.22;;;;;;;;;;5044319;28;20099;-58
2020/12/12 09:44:14;;;;;;;19.13;6.97;;;;;;;;;;5018545;28;20073;-57
2020/12/12 09:46:41;;;;;;;22.50;6.15;;;;;;;;;;5059254;28;20108;-59
2020/12/12 09:49:07;;;;;;;20.70;5.82;;;;;;;;;;5057047;28;20084;-59
2020/12/12 09:51:33;;;;;;;26.02;6.50;;;;;;;;;;5061451;28;20041;-56
2020/12/12 09:54:00;;;;;;;20.05;6.90;;;;;;;;;;5051208;28;20029;-55
2020/12/12 09:56:26;;;;;;;23.75;6.97;;;;;;;;;;5058226;28;20048;-58
2020/12/12 09:58:54;;;;;;;17.40;5.85;;;;;;;;;;5058426;28;20063;-59
2020/12/12 10:01:20;;;;;;;22.63;7.25;;;;;;;;;;5053815;28;20044;-60
2020/12/12 10:03:49;;;;;;;22.85;7.28;;;;;;;;;;5047059;28;20033;-55
2020/12/12 10:06:15;;;;;;;19.30;6.82;;;;;;;;;;5055792;28;20050;-58
2020/12/12 10:08:41;;;;;;;20.88;7.43;;;;;;;;;;5052934;28;20049;-56
2020/12/12 10:11:10;;;;;;;23.38;7.05;;;;;;;;;;5021192;28;20063;-60
2020/12/12 10:13:36;;;;;;;20.35;5.93;;;;;;;;;;5057237;28;20057;-55
2020/12/12 10:16:02;;;;;;;19.48;6.00;;;;;;;;;;5027108;28;20069;-54
2020/12/12 10:18:29;;;;;;;26.40;6.68;;;;;;;;;;5039538;28;20041;-59
2020/12/12 10:20:56;;;;;;;21.20;7.32;;;;;;;;;;5053767;28;20053;-58
2020/12/12 10:23:22;;;;;;;26.67;6.57;;;;;;;;;;5055752;28;20119;-56
2020/12/12 10:25:48;;;;;;;22.90;6.90;;;;;;;;;;5052098;28;20044;-58
2020/12/12 10:28:15;;;;;;;29.23;7.53;;;;;;;;;;5080273;28;20048;-58
2020/12/12 10:30:41;;;;;;;27.63;9.25;;;;;;;;;;5074901;28;20036;-61
2020/12/12 10:33:07;;;;;;;33.78;9.60;;;;;;;;;;5053950;28;20033;-56
2020/12/12 10:35:33;;;;;;;32.70;7.85;;;;;;;;;;5051538;28;20064;-61
2020/12/12 10:38:00;;;;;;;27.10;7.45;;;;;;;;;;5040852;28;20045;-54
2020/12/12 10:40:30;;;;;;;25.73;8.15;;;;;;;;;;5043236;28;20045;-57
2020/12/12 10:42:56;;;;;;;26.17;7.57;;;;;;;;;;5037517;28;20048;-61
2020/12/12 10:45:22;;;;;;;27.63;7.05;;;;;;;;;;5043577;28;20037;-57
2020/12/12 10:47:48;;;;;;;28.52;7.10;;;;;;;;;;5041092;28;20078;-61
2020/12/12 10:50:14;;;;;;;25.67;7.55;;;;;;;;;;5042457;28;20049;-61
2020/12/12 10:52:41;;;;;;;43.67;7.63;;;;;;;;;;5039688;28;20037;-61
2020/12/12 10:55:08;;;;;;;26.58;7.53;;;;;;;;;;5032398;28;20068;-58
2020/12/12 10:57:34;;;;;;;24.17;7.35;;;;;;;;;;5040914;28;20034;-60
2020/12/12 11:00:07;;;;;;;32.67;7.93;;;;;;;;;;5050883;28;20051;-54
2020/12/12 11:02:36;;;;;;;26.42;6.93;;;;;;;;;;5059968;28;20056;-56
2020/12/12 11:05:03;;;;;;;27.20;7.53;;;;;;;;;;5045171;28;20044;-54
2020/12/12 11:07:31;;;;;;;26.60;7.15;;;;;;;;;;5053427;28;20051;-60
2020/12/12 11:10:00;;;;;;;29.53;7.57;;;;;;;;;;5048491;28;20049;-55
2020/12/12 11:12:29;;;;;;;28.42;7.53;;;;;;;;;;5036853;28;20033;-56
2020/12/12 11:14:57;;;;;;;31.17;8.45;;;;;;;;;;5070364;28;20047;-52
2020/12/12 11:17:26;;;;;;;32.13;8.45;;;;;;;;;;5058147;28;20040;-58
2020/12/12 11:19:52;;;;;;;;;;;;;;;;;;5062393;28;20044;-58
2020/12/12 11:22:18;;;;;;;27.20;7.40;;;;;;;;;;5061858;28;19945;-57
2020/12/12 11:24:44;;;;;;;33.65;9.07;;;;;;;;;;5045199;28;20041;-53
2020/12/12 11:27:10;;;;;;;40.17;8.52;;;;;;;;;;5034330;28;20049;-56
2020/12/12 11:29:38;;;;;;;30.45;7.75;;;;;;;;;;5042886;28;20041;-55
2020/12/12 11:32:04;;;;;;;35.73;8.67;;;;;;;;;;5059226;28;20041;-56
2020/12/12 11:34:34;;;;;;;35.75;9.95;;;;;;;;;;5059075;28;20045;-53
2020/12/12 11:37:22;;;;;;;33.72;8.63;;;;;;;;;;5060587;28;20044;-56
2020/12/12 11:39:56;;;;;;;28.23;7.25;;;;;;;;;;5037357;28;20111;-60
2020/12/12 11:42:43;;;;;;;34.50;8.10;;;;;;;;;;5041943;28;20064;-59
2020/12/12 11:47:47;;;;;;;36.38;8.95;;;;;;;;;;5020307;28;20042;-58
2020/12/12 11:50:13;;;;;;;34.63;7.82;;;;;;;;;;5031912;28;20082;-57
2020/12/12 11:52:44;;;;;;;38.08;9.60;;;;;;;;;;5041804;28;20053;-56
2020/12/12 11:55:12;;;;;;;41.95;8.48;;;;;;;;;;5027350;28;20104;-61
2020/12/12 11:57:38;;;;;;;31.92;8.77;;;;;;;;;;5031899;28;20041;-57
2020/12/12 12:00:12;;;;;;;27.52;9.05;;;;;;;;;;5038980;28;20048;-56
2020/12/12 12:02:40;;;;;;;25.73;7.88;;;;;;;;;;5055957;28;20045;-58
2020/12/12 12:05:06;;;;;;;39.97;8.73;;;;;;;;;;5049746;28;20051;-60
2020/12/12 12:07:39;;;;;;;33.17;8.55;;;;;;;;;;5040720;28;20100;-61
2020/12/12 12:10:10;;;;;;;30.05;8.77;;;;;;;;;;5030075;28;20048;-57
2020/12/12 12:12:36;;;;;;;36.50;7.78;;;;;;;;;;5034796;28;20126;-59
2020/12/12 12:15:03;;;;;;;35.90;8.68;;;;;;;;;;5054221;28;20051;-53
2020/12/12 12:17:29;;;;;;;27.95;8.88;;;;;;;;;;5042153;28;20048;-56
2020/12/12 12:19:57;;;;;;;26.52;8.55;;;;;;;;;;5037924;28;20073;-61
2020/12/12 12:22:23;;;;;;;33.35;9.40;;;;;;;;;;5043774;28;20057;-55
2020/12/12 12:24:49;;;;;;;26.83;8.63;;;;;;;;;;5042758;28;20060;-55
2020/12/12 12:27:15;;;;;;;29.48;8.23;;;;;;;;;;5060208;28;20047;-56
2020/12/12 12:29:42;;;;;;;23.60;8.13;;;;;;;;;;5063149;28;20043;-55
2020/12/12 12:32:09;;;;;;;25.63;9.20;;;;;;;;;;5058914;28;20118;-61
2020/12/12 12:34:35;;;;;;;34.63;8.57;;;;;;;;;;5062164;28;20048;-58
2020/12/12 12:37:05;;;;;;;27.15;8.88;;;;;;;;;;5045250;28;20037;-56
2020/12/12 12:39:32;;;;;;;32.45;8.85;;;;;;;;;;5032323;28;20033;-59
2020/12/12 12:41:58;;;;;;;26.05;8.52;;;;;;;;;;5046449;28;20029;-55
2020/12/12 12:44:27;;;;;;;30.35;9.55;;;;;;;;;;5040342;28;20041;-54
2020/12/12 12:46:56;;;;;;;33.63;9.40;;;;;;;;;;5036317;28;20045;-58
2020/12/12 12:49:22;;;;;;;25.92;8.45;;;;;;;;;;5056775;28;20045;-58
2020/12/12 12:51:50;;;;;;;32.22;9.65;;;;;;;;;;5037775;28;20057;-56
2020/12/12 12:54:17;;;;;;;38.80;9.48;;;;;;;;;;5047386;28;20029;-58
2020/12/12 12:56:46;;;;;;;38.38;9.57;;;;;;;;;;5054490;28;20091;-59
2020/12/12 12:59:15;;;;;;;31.13;9.88;;;;;;;;;;5041319;28;20050;-58
2020/12/12 13:01:41;;;;;;;29.80;9.27;;;;;;;;;;5041713;28;20123;-59
2020/12/12 13:04:09;;;;;;;36.00;10.40;;;;;;;;;;5031797;28;20104;-55
2020/12/12 13:06:37;;;;;;;39.57;9.00;;;;;;;;;;5040488;28;20057;-56
2020/12/12 13:09:12;;;;;;;40.00;8.53;;;;;;;;;;5015662;28;20275;-60
2020/12/12 13:11:40;;;;;;;38.28;10.30;;;;;;;;;;5020516;28;20271;-56
2020/12/12 13:14:06;;;;;;;42.08;10.48;;;;;;;;;;5035623;28;20029;-56
2020/12/12 13:16:33;;;;;;;42.92;10.50;;;;;;;;;;5033512;28;20042;-59
2020/12/12 13:19:02;;;;;;;34.35;9.82;;;;;;;;;;5022596;28;20041;-55
2020/12/12 13:21:41;;;;;;;40.53;10.50;;;;;;;;;;5038804;28;20060;-55
2020/12/12 13:24:14;;;;;;;39.22;11.85;;;;;;;;;;5012074;28;20041;-57
2020/12/12 13:26:57;;;;;;;51.67;11.40;;;;;;;;;;5033894;28;20061;-59
2020/12/12 13:32:11;;;;;;;;;;;;;;;;;;5020562;28;20041;-55
2020/12/12 13:34:38;;;;;;;47.65;10.88;;;;;;;;;;5032440;28;19924;-55
2020/12/12 13:37:04;;;;;;;46.17;11.45;;;;;;;;;;5041371;28;20048;-54
2020/12/12 13:39:32;;;;;;;39.03;11.05;;;;;;;;;;5022383;28;20045;-55
2020/12/12 13:42:02;;;;;;;51.00;11.80;;;;;;;;;;5030184;28;20055;-60
2020/12/12 13:44:31;;;;;;;46.22;11.02;;;;;;;;;;5036449;28;20049;-56
2020/12/12 13:46:57;;;;;;;42.75;10.40;;;;;;;;;;5040864;28;20052;-60
2020/12/12 13:49:26;;;;;;;40.00;10.73;;;;;;;;;;5028759;28;20045;-55
2020/12/12 13:51:54;;;;;;;48.72;11.60;;;;;;;;;;5011973;28;20045;-59
2020/12/12 13:54:23;;;;;;;49.20;10.70;;;;;;;;;;5018678;28;20041;-59
2020/12/12 13:56:51;;;;;;;68.15;13.48;;;;;;;;;;5022765;28;20061;-52
2020/12/12 13:59:25;;;;;;;69.68;12.00;;;;;;;;;;5019621;28;20101;-59
2020/12/12 14:01:53;;;;;;;67.47;11.73;;;;;;;;;;5029141;28;20033;-55
2020/12/12 14:04:22;;;;;;;52.45;11.30;;;;;;;;;;5035837;28;20122;-59
2020/12/12 14:06:49;;;;;;;56.97;11.40;;;;;;;;;;5047176;28;20044;-60
2020/12/12 14:23:10;;;;;;;44.67;10.65;;;;;;;;;;5015768;28;20046;-56
2020/12/12 14:28:24;;;;;;;45.08;10.98;;;;;;;;;;5014400;28;20050;-54
2020/12/12 14:30:54;;;;;;;37.15;10.98;;;;;;;;;;5024081;28;20037;-61
2020/12/12 14:33:21;;;;;;;54.15;11.63;;;;;;;;;;5029379;28;20041;-58
2020/12/12 14:35:47;;;;;;;58.63;12.20;;;;;;;;;;5015130;28;20046;-58
2020/12/12 14:38:13;;;;;;;44.13;10.63;;;;;;;;;;5006012;28;20053;-57
2020/12/12 14:40:40;;;;;;;60.88;12.70;;;;;;;;;;5004517;28;20066;-57
2020/12/12 14:43:14;;;;;;;48.42;11.57;;;;;;;;;;5061317;28;20053;-55
2020/12/12 14:45:40;;;;;;;44.10;10.30;;;;;;;;;;5022165;28;20058;-59
2020/12/12 14:48:09;;;;;;;52.10;11.63;;;;;;;;;;5006216;28;20053;-55
2020/12/12 14:50:36;;;;;;;39.70;10.80;;;;;;;;;;5037817;28;20052;-57
2020/12/12 14:53:02;;;;;;;45.95;10.60;;;;;;;;;;5041450;28;20053;-60
2020/12/12 14:55:29;;;;;;;47.60;11.13;;;;;;;;;;5016393;28;20034;-59